sensor_id;sensor_type;location;lat;lon;timestamp;P1;durP1;ratioP1;P2;durP2;ratioP2
23716;SDS011;22094;52.130;5.598;2023-03-23T00:01:12;11.38;;;7.40;;
23716;SDS011;22094;52.130;5.598;2023-03-23T00:03:40;14.73;;;6.78;;
23716;SDS011;22094;52.130;5.598;2023-03-23T00:06:06;11.35;;;6.40;;
23716;SDS011;22094;52.130;5.598;2023-03-23T00:08:33;12.75;;;7.20;;
23716;SDS011;22094;52.130;5.598;2023-03-23T00:11:02;12.13;;;6.97;;
23716;SDS011;22094;52.130;5.598;2023-03-23T00:13:32;9.90;;;6.65;;
23716;SDS011;22094;52.130;5.598;2023-03-23T00:15:58;10.48;;;6.53;;
23716;SDS011;22094;52.130;5.598;2023-03-23T00:18:23;13.43;;;6.45;;
23716;SDS011;22094;52.130;5.598;2023-03-23T00:20:53;9.18;;;6.97;;
23716;SDS011;22094;52.130;5.598;2023-03-23T00:23:22;10.27;;;6.55;;
23716;SDS011;22094;52.130;5.598;2023-03-23T00:25:51;10.10;;;6.70;;
23716;SDS011;22094;52.130;5.598;2023-03-23T00:28:21;12.35;;;6.80;;
23716;SDS011;22094;52.130;5.598;2023-03-23T00:30:59;8.45;;;5.88;;
23716;SDS011;22094;52.130;5.598;2023-03-23T00:33:33;14.30;;;6.43;;
23716;SDS011;22094;52.130;5.598;2023-03-23T00:36:03;12.15;;;5.90;;
23716;SDS011;22094;52.130;5.598;2023-03-23T00:38:30;7.45;;;5.78;;
23716;SDS011;22094;52.130;5.598;2023-03-23T00:40:56;10.80;;;6.10;;
23716;SDS011;22094;52.130;5.598;2023-03-23T00:43:22;8.75;;;6.13;;
23716;SDS011;22094;52.130;5.598;2023-03-23T00:45:49;12.82;;;6.20;;
23716;SDS011;22094;52.130;5.598;2023-03-23T00:48:17;10.18;;;5.90;;
23716;SDS011;22094;52.130;5.598;2023-03-23T00:50:44;10.05;;;5.90;;
23716;SDS011;22094;52.130;5.598;2023-03-23T00:53:10;8.35;;;5.45;;
23716;SDS011;22094;52.130;5.598;2023-03-23T00:55:35;10.75;;;5.85;;
23716;SDS011;22094;52.130;5.598;2023-03-23T00:58:01;7.53;;;5.40;;
23716;SDS011;22094;52.130;5.598;2023-03-23T01:00:26;10.82;;;5.45;;
23716;SDS011;22094;52.130;5.598;2023-03-23T01:02:52;8.60;;;4.97;;
23716;SDS011;22094;52.130;5.598;2023-03-23T01:05:18;9.43;;;5.20;;
23716;SDS011;22094;52.130;5.598;2023-03-23T01:07:44;9.65;;;4.93;;
23716;SDS011;22094;52.130;5.598;2023-03-23T01:10:11;8.48;;;4.68;;
23716;SDS011;22094;52.130;5.598;2023-03-23T01:12:40;12.05;;;5.25;;
23716;SDS011;22094;52.130;5.598;2023-03-23T01:15:14;7.38;;;5.20;;
23716;SDS011;22094;52.130;5.598;2023-03-23T01:17:41;7.93;;;4.78;;
23716;SDS011;22094;52.130;5.598;2023-03-23T01:20:07;6.90;;;4.35;;
23716;SDS011;22094;52.130;5.598;2023-03-23T01:22:34;8.30;;;4.63;;
23716;SDS011;22094;52.130;5.598;2023-03-23T01:25:00;5.28;;;4.20;;
23716;SDS011;22094;52.130;5.598;2023-03-23T01:27:25;5.95;;;4.68;;
23716;SDS011;22094;52.130;5.598;2023-03-23T01:29:51;5.25;;;4.05;;
23716;SDS011;22094;52.130;5.598;2023-03-23T01:32:17;8.00;;;4.35;;
23716;SDS011;22094;52.130;5.598;2023-03-23T01:34:42;5.03;;;3.58;;
23716;SDS011;22094;52.130;5.598;2023-03-23T01:37:08;7.72;;;3.90;;
23716;SDS011;22094;52.130;5.598;2023-03-23T01:39:35;5.32;;;3.78;;
23716;SDS011;22094;52.130;5.598;2023-03-23T01:42:02;5.68;;;3.65;;
23716;SDS011;22094;52.130;5.598;2023-03-23T01:46:56;4.43;;;3.47;;
23716;SDS011;22094;52.130;5.598;2023-03-23T01:49:29;7.25;;;4.20;;
23716;SDS011;22094;52.130;5.598;2023-03-23T01:52:05;7.93;;;4.28;;
23716;SDS011;22094;52.130;5.598;2023-03-23T01:54:42;6.85;;;4.05;;
23716;SDS011;22094;52.130;5.598;2023-03-23T01:57:11;7.10;;;3.92;;
23716;SDS011;22094;52.130;5.598;2023-03-23T01:59:39;4.80;;;4.20;;
23716;SDS011;22094;52.130;5.598;2023-03-23T02:02:10;5.15;;;4.03;;
23716;SDS011;22094;52.130;5.598;2023-03-23T02:04:36;9.98;;;4.43;;
23716;SDS011;22094;52.130;5.598;2023-03-23T02:07:03;8.75;;;4.20;;
23716;SDS011;22094;52.130;5.598;2023-03-23T02:09:29;5.13;;;4.63;;
23716;SDS011;22094;52.130;5.598;2023-03-23T02:11:55;6.57;;;4.32;;
23716;SDS011;22094;52.130;5.598;2023-03-23T02:14:21;7.30;;;4.32;;
23716;SDS011;22094;52.130;5.598;2023-03-23T02:17:01;7.72;;;4.63;;
23716;SDS011;22094;52.130;5.598;2023-03-23T02:24:59;6.80;;;4.78;;
23716;SDS011;22094;52.130;5.598;2023-03-23T02:35:38;7.88;;;5.20;;
23716;SDS011;22094;52.130;5.598;2023-03-23T02:38:30;7.00;;;5.22;;
23716;SDS011;22094;52.130;5.598;2023-03-23T02:41:02;7.85;;;4.93;;
23716;SDS011;22094;52.130;5.598;2023-03-23T02:43:30;6.30;;;5.10;;
23716;SDS011;22094;52.130;5.598;2023-03-23T02:46:00;7.38;;;4.95;;
23716;SDS011;22094;52.130;5.598;2023-03-23T02:48:31;10.07;;;5.28;;
23716;SDS011;22094;52.130;5.598;2023-03-23T02:50:58;7.15;;;5.20;;
23716;SDS011;22094;52.130;5.598;2023-03-23T02:53:27;7.03;;;5.30;;
23716;SDS011;22094;52.130;5.598;2023-03-23T02:55:55;8.50;;;5.25;;
23716;SDS011;22094;52.130;5.598;2023-03-23T02:58:22;6.20;;;5.47;;
23716;SDS011;22094;52.130;5.598;2023-03-23T03:00:51;9.05;;;5.00;;
23716;SDS011;22094;52.130;5.598;2023-03-23T03:03:20;5.88;;;5.28;;
23716;SDS011;22094;52.130;5.598;2023-03-23T03:08:41;7.47;;;5.40;;
23716;SDS011;22094;52.130;5.598;2023-03-23T03:11:18;6.82;;;5.28;;
23716;SDS011;22094;52.130;5.598;2023-03-23T03:19:35;8.20;;;5.10;;
23716;SDS011;22094;52.130;5.598;2023-03-23T03:22:05;7.03;;;5.03;;
23716;SDS011;22094;52.130;5.598;2023-03-23T03:24:32;9.80;;;5.50;;
23716;SDS011;22094;52.130;5.598;2023-03-23T03:26:59;8.25;;;5.13;;
23716;SDS011;22094;52.130;5.598;2023-03-23T03:29:29;8.45;;;4.95;;
23716;SDS011;22094;52.130;5.598;2023-03-23T03:31:59;8.00;;;4.72;;
23716;SDS011;22094;52.130;5.598;2023-03-23T03:34:29;8.13;;;4.70;;
23716;SDS011;22094;52.130;5.598;2023-03-23T03:36:56;11.07;;;4.90;;
23716;SDS011;22094;52.130;5.598;2023-03-23T03:39:24;6.90;;;4.22;;
23716;SDS011;22094;52.130;5.598;2023-03-23T03:41:51;8.07;;;4.43;;
23716;SDS011;22094;52.130;5.598;2023-03-23T03:44:17;6.55;;;4.10;;
23716;SDS011;22094;52.130;5.598;2023-03-23T03:46:43;7.32;;;4.35;;
23716;SDS011;22094;52.130;5.598;2023-03-23T03:49:09;7.13;;;3.70;;
23716;SDS011;22094;52.130;5.598;2023-03-23T03:51:37;5.80;;;4.22;;
23716;SDS011;22094;52.130;5.598;2023-03-23T03:54:03;6.20;;;3.72;;
23716;SDS011;22094;52.130;5.598;2023-03-23T03:56:29;4.30;;;3.40;;
23716;SDS011;22094;52.130;5.598;2023-03-23T03:58:56;9.82;;;4.15;;
23716;SDS011;22094;52.130;5.598;2023-03-23T04:01:22;4.90;;;4.35;;
23716;SDS011;22094;52.130;5.598;2023-03-23T04:03:48;8.05;;;4.28;;
23716;SDS011;22094;52.130;5.598;2023-03-23T04:06:14;7.63;;;4.13;;
23716;SDS011;22094;52.130;5.598;2023-03-23T04:08:40;6.38;;;3.95;;
23716;SDS011;22094;52.130;5.598;2023-03-23T04:11:07;5.75;;;4.18;;
23716;SDS011;22094;52.130;5.598;2023-03-23T04:13:33;9.60;;;4.35;;
23716;SDS011;22094;52.130;5.598;2023-03-23T04:15:59;7.20;;;4.43;;
23716;SDS011;22094;52.130;5.598;2023-03-23T04:18:25;7.93;;;4.28;;
23716;SDS011;22094;52.130;5.598;2023-03-23T04:20:51;5.93;;;4.60;;
23716;SDS011;22094;52.130;5.598;2023-03-23T04:23:17;4.43;;;3.75;;
23716;SDS011;22094;52.130;5.598;2023-03-23T04:25:48;7.22;;;3.80;;
23716;SDS011;22094;52.130;5.598;2023-03-23T04:28:16;8.02;;;4.35;;
23716;SDS011;22094;52.130;5.598;2023-03-23T04:30:44;6.53;;;3.63;;
23716;SDS011;22094;52.130;5.598;2023-03-23T04:33:10;7.03;;;3.83;;
23716;SDS011;22094;52.130;5.598;2023-03-23T04:35:39;8.23;;;3.72;;
23716;SDS011;22094;52.130;5.598;2023-03-23T04:38:05;7.00;;;3.70;;
23716;SDS011;22094;52.130;5.598;2023-03-23T04:40:32;6.22;;;3.58;;
23716;SDS011;22094;52.130;5.598;2023-03-23T04:43:01;5.10;;;3.78;;
23716;SDS011;22094;52.130;5.598;2023-03-23T04:45:30;9.88;;;3.70;;
23716;SDS011;22094;52.130;5.598;2023-03-23T04:47:57;5.10;;;3.15;;
23716;SDS011;22094;52.130;5.598;2023-03-23T04:50:24;5.70;;;3.47;;
23716;SDS011;22094;52.130;5.598;2023-03-23T04:52:56;8.43;;;3.47;;
23716;SDS011;22094;52.130;5.598;2023-03-23T04:55:22;5.40;;;2.72;;
23716;SDS011;22094;52.130;5.598;2023-03-23T04:57:49;9.18;;;3.10;;
23716;SDS011;22094;52.130;5.598;2023-03-23T05:00:15;6.35;;;2.38;;
23716;SDS011;22094;52.130;5.598;2023-03-23T05:02:42;10.18;;;2.78;;
23716;SDS011;22094;52.130;5.598;2023-03-23T05:05:09;7.68;;;2.50;;
23716;SDS011;22094;52.130;5.598;2023-03-23T05:07:40;6.32;;;2.60;;
23716;SDS011;22094;52.130;5.598;2023-03-23T05:10:07;8.20;;;2.40;;
23716;SDS011;22094;52.130;5.598;2023-03-23T05:12:34;7.30;;;2.83;;
23716;SDS011;22094;52.130;5.598;2023-03-23T05:15:00;11.32;;;2.85;;
23716;SDS011;22094;52.130;5.598;2023-03-23T05:17:26;7.03;;;2.35;;
23716;SDS011;22094;52.130;5.598;2023-03-23T05:19:52;8.77;;;2.53;;
23716;SDS011;22094;52.130;5.598;2023-03-23T05:22:18;9.05;;;2.80;;
23716;SDS011;22094;52.130;5.598;2023-03-23T05:24:45;8.95;;;2.40;;
23716;SDS011;22094;52.130;5.598;2023-03-23T05:27:12;7.68;;;2.40;;
23716;SDS011;22094;52.130;5.598;2023-03-23T05:29:40;9.05;;;2.58;;
23716;SDS011;22094;52.130;5.598;2023-03-23T05:32:06;7.53;;;2.25;;
23716;SDS011;22094;52.130;5.598;2023-03-23T05:34:32;10.60;;;3.17;;
23716;SDS011;22094;52.130;5.598;2023-03-23T05:36:59;11.60;;;2.53;;
23716;SDS011;22094;52.130;5.598;2023-03-23T05:39:25;8.13;;;2.65;;
23716;SDS011;22094;52.130;5.598;2023-03-23T05:41:51;9.75;;;2.42;;
23716;SDS011;22094;52.130;5.598;2023-03-23T05:44:17;7.65;;;2.38;;
23716;SDS011;22094;52.130;5.598;2023-03-23T05:46:46;10.52;;;2.38;;
23716;SDS011;22094;52.130;5.598;2023-03-23T05:49:13;7.22;;;2.35;;
23716;SDS011;22094;52.130;5.598;2023-03-23T05:51:41;12.88;;;2.80;;
23716;SDS011;22094;52.130;5.598;2023-03-23T05:54:10;11.73;;;2.78;;
23716;SDS011;22094;52.130;5.598;2023-03-23T05:56:37;11.38;;;2.72;;
23716;SDS011;22094;52.130;5.598;2023-03-23T05:59:06;10.05;;;2.80;;
23716;SDS011;22094;52.130;5.598;2023-03-23T06:01:32;9.30;;;2.75;;
23716;SDS011;22094;52.130;5.598;2023-03-23T06:03:58;10.48;;;2.55;;
23716;SDS011;22094;52.130;5.598;2023-03-23T06:06:29;10.63;;;2.55;;
23716;SDS011;22094;52.130;5.598;2023-03-23T06:09:01;10.68;;;2.92;;
23716;SDS011;22094;52.130;5.598;2023-03-23T06:11:28;10.70;;;3.15;;
23716;SDS011;22094;52.130;5.598;2023-03-23T06:13:53;14.63;;;3.05;;
23716;SDS011;22094;52.130;5.598;2023-03-23T06:16:19;14.32;;;3.63;;
23716;SDS011;22094;52.130;5.598;2023-03-23T06:18:45;11.95;;;3.55;;
23716;SDS011;22094;52.130;5.598;2023-03-23T06:21:11;14.98;;;3.30;;
23716;SDS011;22094;52.130;5.598;2023-03-23T06:23:37;15.25;;;3.80;;
23716;SDS011;22094;52.130;5.598;2023-03-23T06:26:05;14.40;;;3.95;;
23716;SDS011;22094;52.130;5.598;2023-03-23T06:28:33;14.57;;;3.92;;
23716;SDS011;22094;52.130;5.598;2023-03-23T06:31:02;16.02;;;3.95;;
23716;SDS011;22094;52.130;5.598;2023-03-23T06:33:31;20.10;;;4.82;;
23716;SDS011;22094;52.130;5.598;2023-03-23T06:35:59;14.55;;;4.50;;
23716;SDS011;22094;52.130;5.598;2023-03-23T06:38:25;17.27;;;5.00;;
23716;SDS011;22094;52.130;5.598;2023-03-23T06:40:54;16.38;;;4.78;;
23716;SDS011;22094;52.130;5.598;2023-03-23T06:43:22;18.58;;;4.68;;
23716;SDS011;22094;52.130;5.598;2023-03-23T06:45:48;14.18;;;4.75;;
23716;SDS011;22094;52.130;5.598;2023-03-23T06:48:15;20.48;;;5.15;;
23716;SDS011;22094;52.130;5.598;2023-03-23T06:50:44;17.63;;;5.40;;
23716;SDS011;22094;52.130;5.598;2023-03-23T06:53:11;11.20;;;4.07;;
23716;SDS011;22094;52.130;5.598;2023-03-23T06:55:37;19.60;;;4.53;;
23716;SDS011;22094;52.130;5.598;2023-03-23T06:58:04;15.65;;;4.30;;
23716;SDS011;22094;52.130;5.598;2023-03-23T07:00:31;15.15;;;4.20;;
23716;SDS011;22094;52.130;5.598;2023-03-23T07:02:57;10.40;;;4.10;;
23716;SDS011;22094;52.130;5.598;2023-03-23T07:05:23;13.73;;;4.03;;
23716;SDS011;22094;52.130;5.598;2023-03-23T07:07:49;11.73;;;3.85;;
23716;SDS011;22094;52.130;5.598;2023-03-23T07:10:15;17.13;;;4.32;;
23716;SDS011;22094;52.130;5.598;2023-03-23T07:12:41;13.90;;;4.50;;
23716;SDS011;22094;52.130;5.598;2023-03-23T07:15:07;10.25;;;3.67;;
23716;SDS011;22094;52.130;5.598;2023-03-23T07:17:35;12.18;;;3.60;;
23716;SDS011;22094;52.130;5.598;2023-03-23T07:20:02;12.55;;;4.07;;
23716;SDS011;22094;52.130;5.598;2023-03-23T07:22:29;12.50;;;3.45;;
23716;SDS011;22094;52.130;5.598;2023-03-23T07:24:55;12.48;;;3.65;;
23716;SDS011;22094;52.130;5.598;2023-03-23T07:27:21;12.85;;;3.67;;
23716;SDS011;22094;52.130;5.598;2023-03-23T07:29:46;14.60;;;3.45;;
23716;SDS011;22094;52.130;5.598;2023-03-23T07:32:12;8.40;;;2.90;;
23716;SDS011;22094;52.130;5.598;2023-03-23T07:34:38;12.10;;;3.28;;
23716;SDS011;22094;52.130;5.598;2023-03-23T07:37:04;8.07;;;2.65;;
23716;SDS011;22094;52.130;5.598;2023-03-23T07:39:30;7.68;;;2.53;;
23716;SDS011;22094;52.130;5.598;2023-03-23T07:41:56;11.00;;;3.13;;
23716;SDS011;22094;52.130;5.598;2023-03-23T07:44:22;9.63;;;2.90;;
23716;SDS011;22094;52.130;5.598;2023-03-23T07:46:48;7.80;;;2.45;;
23716;SDS011;22094;52.130;5.598;2023-03-23T07:49:14;10.68;;;2.70;;
23716;SDS011;22094;52.130;5.598;2023-03-23T07:51:40;9.07;;;2.90;;
23716;SDS011;22094;52.130;5.598;2023-03-23T07:54:06;11.90;;;3.10;;
23716;SDS011;22094;52.130;5.598;2023-03-23T07:56:33;11.88;;;3.35;;
23716;SDS011;22094;52.130;5.598;2023-03-23T07:59:00;8.63;;;2.45;;
23716;SDS011;22094;52.130;5.598;2023-03-23T08:01:25;10.55;;;3.03;;
23716;SDS011;22094;52.130;5.598;2023-03-23T08:03:51;10.23;;;2.80;;
23716;SDS011;22094;52.130;5.598;2023-03-23T08:06:19;7.18;;;2.55;;
23716;SDS011;22094;52.130;5.598;2023-03-23T08:08:46;8.05;;;3.08;;
23716;SDS011;22094;52.130;5.598;2023-03-23T08:11:12;8.27;;;3.00;;
23716;SDS011;22094;52.130;5.598;2023-03-23T08:13:40;8.07;;;2.97;;
23716;SDS011;22094;52.130;5.598;2023-03-23T08:16:06;11.20;;;3.30;;
23716;SDS011;22094;52.130;5.598;2023-03-23T08:18:34;8.27;;;3.35;;
23716;SDS011;22094;52.130;5.598;2023-03-23T08:21:00;10.57;;;3.28;;
23716;SDS011;22094;52.130;5.598;2023-03-23T08:23:26;8.50;;;3.33;;
23716;SDS011;22094;52.130;5.598;2023-03-23T08:25:51;9.35;;;3.33;;
23716;SDS011;22094;52.130;5.598;2023-03-23T08:28:18;7.32;;;3.38;;
23716;SDS011;22094;52.130;5.598;2023-03-23T08:30:44;13.43;;;3.50;;
23716;SDS011;22094;52.130;5.598;2023-03-23T08:33:10;9.52;;;3.25;;
23716;SDS011;22094;52.130;5.598;2023-03-23T08:35:36;8.75;;;3.10;;
23716;SDS011;22094;52.130;5.598;2023-03-23T08:38:02;6.72;;;3.17;;
23716;SDS011;22094;52.130;5.598;2023-03-23T08:40:28;12.82;;;3.60;;
23716;SDS011;22094;52.130;5.598;2023-03-23T08:42:54;6.95;;;3.05;;
23716;SDS011;22094;52.130;5.598;2023-03-23T08:45:21;9.65;;;3.42;;
23716;SDS011;22094;52.130;5.598;2023-03-23T08:47:48;10.85;;;3.05;;
23716;SDS011;22094;52.130;5.598;2023-03-23T08:50:17;14.40;;;3.33;;
23716;SDS011;22094;52.130;5.598;2023-03-23T08:52:45;8.50;;;3.15;;
23716;SDS011;22094;52.130;5.598;2023-03-23T08:55:11;8.73;;;3.25;;
23716;SDS011;22094;52.130;5.598;2023-03-23T08:57:37;8.15;;;3.25;;
23716;SDS011;22094;52.130;5.598;2023-03-23T09:00:04;10.15;;;3.85;;
23716;SDS011;22094;52.130;5.598;2023-03-23T09:02:44;8.57;;;3.00;;
23716;SDS011;22094;52.130;5.598;2023-03-23T09:05:15;8.50;;;3.15;;
23716;SDS011;22094;52.130;5.598;2023-03-23T09:07:43;10.80;;;3.10;;
23716;SDS011;22094;52.130;5.598;2023-03-23T09:10:11;11.82;;;3.33;;
23716;SDS011;22094;52.130;5.598;2023-03-23T09:12:38;10.60;;;3.15;;
23716;SDS011;22094;52.130;5.598;2023-03-23T09:15:05;9.40;;;2.60;;
23716;SDS011;22094;52.130;5.598;2023-03-23T09:17:33;7.68;;;2.75;;
23716;SDS011;22094;52.130;5.598;2023-03-23T09:19:59;6.88;;;2.70;;
23716;SDS011;22094;52.130;5.598;2023-03-23T09:22:25;9.75;;;3.08;;
23716;SDS011;22094;52.130;5.598;2023-03-23T09:24:50;9.50;;;2.55;;
23716;SDS011;22094;52.130;5.598;2023-03-23T09:27:17;8.85;;;2.40;;
23716;SDS011;22094;52.130;5.598;2023-03-23T09:29:44;10.30;;;3.00;;
23716;SDS011;22094;52.130;5.598;2023-03-23T09:32:10;11.88;;;3.20;;
23716;SDS011;22094;52.130;5.598;2023-03-23T09:34:38;7.63;;;2.55;;
23716;SDS011;22094;52.130;5.598;2023-03-23T09:37:04;7.28;;;2.60;;
23716;SDS011;22094;52.130;5.598;2023-03-23T09:39:30;8.95;;;2.65;;
23716;SDS011;22094;52.130;5.598;2023-03-23T09:47:32;6.90;;;2.85;;
23716;SDS011;22094;52.130;5.598;2023-03-23T09:50:11;12.00;;;3.13;;
23716;SDS011;22094;52.130;5.598;2023-03-23T09:52:48;8.18;;;2.55;;
23716;SDS011;22094;52.130;5.598;2023-03-23T09:55:19;6.75;;;2.58;;
23716;SDS011;22094;52.130;5.598;2023-03-23T10:00:24;9.75;;;3.05;;
23716;SDS011;22094;52.130;5.598;2023-03-23T10:03:00;7.82;;;2.88;;
23716;SDS011;22094;52.130;5.598;2023-03-23T10:07:54;8.10;;;2.30;;
23716;SDS011;22094;52.130;5.598;2023-03-23T10:10:20;10.50;;;2.80;;
23716;SDS011;22094;52.130;5.598;2023-03-23T10:12:56;7.63;;;2.42;;
23716;SDS011;22094;52.130;5.598;2023-03-23T10:15:30;12.10;;;2.70;;
23716;SDS011;22094;52.130;5.598;2023-03-23T10:20:32;12.75;;;3.08;;
23716;SDS011;22094;52.130;5.598;2023-03-23T10:28:58;9.55;;;2.47;;
23716;SDS011;22094;52.130;5.598;2023-03-23T10:31:31;11.30;;;2.85;;
23716;SDS011;22094;52.130;5.598;2023-03-23T10:34:04;13.27;;;2.72;;
23716;SDS011;22094;52.130;5.598;2023-03-23T10:37:41;13.75;;;2.75;;
23716;SDS011;22094;52.130;5.598;2023-03-23T10:39:58;11.07;;;3.08;;
23716;SDS011;22094;52.130;5.598;2023-03-23T10:42:26;13.95;;;2.80;;
23716;SDS011;22094;52.130;5.598;2023-03-23T10:44:55;10.05;;;2.97;;
23716;SDS011;22094;52.130;5.598;2023-03-23T10:47:22;9.90;;;2.53;;
23716;SDS011;22094;52.130;5.598;2023-03-23T10:49:56;10.00;;;2.75;;
23716;SDS011;22094;52.130;5.598;2023-03-23T10:52:31;13.38;;;3.40;;
23716;SDS011;22094;52.130;5.598;2023-03-23T10:55:09;8.18;;;2.47;;
23716;SDS011;22094;52.130;5.598;2023-03-23T10:57:38;9.23;;;2.30;;
23716;SDS011;22094;52.130;5.598;2023-03-23T11:02:38;11.07;;;2.65;;
23716;SDS011;22094;52.130;5.598;2023-03-23T11:05:17;10.00;;;2.60;;
23716;SDS011;22094;52.130;5.598;2023-03-23T11:07:55;10.25;;;2.70;;
23716;SDS011;22094;52.130;5.598;2023-03-23T11:10:27;11.63;;;2.65;;
23716;SDS011;22094;52.130;5.598;2023-03-23T11:13:00;12.85;;;2.60;;
23716;SDS011;22094;52.130;5.598;2023-03-23T11:15:33;11.75;;;2.67;;
23716;SDS011;22094;52.130;5.598;2023-03-23T11:18:06;7.13;;;2.40;;
23716;SDS011;22094;52.130;5.598;2023-03-23T11:20:36;7.55;;;2.20;;
23716;SDS011;22094;52.130;5.598;2023-03-23T11:23:11;9.10;;;2.45;;
23716;SDS011;22094;52.130;5.598;2023-03-23T11:28:37;10.30;;;2.42;;
23716;SDS011;22094;52.130;5.598;2023-03-23T11:31:08;10.57;;;2.47;;
23716;SDS011;22094;52.130;5.598;2023-03-23T11:36:36;11.10;;;2.95;;
23716;SDS011;22094;52.130;5.598;2023-03-23T11:39:22;12.63;;;2.00;;
23716;SDS011;22094;52.130;5.598;2023-03-23T11:41:50;9.30;;;2.17;;
23716;SDS011;22094;52.130;5.598;2023-03-23T11:44:16;8.68;;;2.30;;
23716;SDS011;22094;52.130;5.598;2023-03-23T11:49:42;9.18;;;2.40;;
23716;SDS011;22094;52.130;5.598;2023-03-23T11:52:23;11.25;;;2.38;;
23716;SDS011;22094;52.130;5.598;2023-03-23T11:54:58;12.45;;;2.85;;
23716;SDS011;22094;52.130;5.598;2023-03-23T11:57:35;11.25;;;2.53;;
23716;SDS011;22094;52.130;5.598;2023-03-23T12:00:01;15.60;;;3.20;;
23716;SDS011;22094;52.130;5.598;2023-03-23T12:02:47;9.73;;;2.50;;
23716;SDS011;22094;52.130;5.598;2023-03-23T12:22:41;12.45;;;3.05;;
23716;SDS011;22094;52.130;5.598;2023-03-23T12:50:35;8.55;;;2.40;;
23716;SDS011;22094;52.130;5.598;2023-03-23T12:53:35;10.50;;;2.50;;
23716;SDS011;22094;52.130;5.598;2023-03-23T12:56:22;8.65;;;2.53;;
23716;SDS011;22094;52.130;5.598;2023-03-23T12:59:02;8.82;;;2.28;;
23716;SDS011;22094;52.130;5.598;2023-03-23T13:01:45;7.25;;;2.20;;
23716;SDS011;22094;52.130;5.598;2023-03-23T13:04:32;6.55;;;2.15;;
23716;SDS011;22094;52.130;5.598;2023-03-23T13:07:02;8.90;;;2.17;;
23716;SDS011;22094;52.130;5.598;2023-03-23T13:09:48;8.32;;;2.33;;
23716;SDS011;22094;52.130;5.598;2023-03-23T13:12:29;9.48;;;2.50;;
23716;SDS011;22094;52.130;5.598;2023-03-23T13:20:54;7.95;;;2.70;;
23716;SDS011;22094;52.130;5.598;2023-03-23T13:23:36;12.50;;;2.47;;
23716;SDS011;22094;52.130;5.598;2023-03-23T13:31:25;6.57;;;1.95;;
23716;SDS011;22094;52.130;5.598;2023-03-23T13:34:01;7.43;;;2.35;;
23716;SDS011;22094;52.130;5.598;2023-03-23T13:36:31;8.05;;;2.10;;
23716;SDS011;22094;52.130;5.598;2023-03-23T13:39:02;8.10;;;2.58;;
23716;SDS011;22094;52.130;5.598;2023-03-23T13:41:32;8.70;;;2.00;;
23716;SDS011;22094;52.130;5.598;2023-03-23T13:44:15;8.50;;;2.45;;
23716;SDS011;22094;52.130;5.598;2023-03-23T13:46:53;11.65;;;2.42;;
23716;SDS011;22094;52.130;5.598;2023-03-23T13:49:31;6.93;;;2.30;;
23716;SDS011;22094;52.130;5.598;2023-03-23T13:54:43;9.02;;;2.28;;
23716;SDS011;22094;52.130;5.598;2023-03-23T13:57:21;7.07;;;2.22;;
23716;SDS011;22094;52.130;5.598;2023-03-23T13:59:58;9.98;;;2.58;;
23716;SDS011;22094;52.130;5.598;2023-03-23T14:02:37;7.97;;;2.05;;
23716;SDS011;22094;52.130;5.598;2023-03-23T14:05:30;5.60;;;1.90;;
23716;SDS011;22094;52.130;5.598;2023-03-23T14:08:03;6.45;;;1.90;;
23716;SDS011;22094;52.130;5.598;2023-03-23T14:10:35;6.72;;;1.80;;
23716;SDS011;22094;52.130;5.598;2023-03-23T14:13:23;10.35;;;3.15;;
23716;SDS011;22094;52.130;5.598;2023-03-23T14:16:04;8.07;;;3.17;;
23716;SDS011;22094;52.130;5.598;2023-03-23T14:18:39;8.30;;;2.80;;
23716;SDS011;22094;52.130;5.598;2023-03-23T14:21:12;11.40;;;3.28;;
23716;SDS011;22094;52.130;5.598;2023-03-23T14:23:40;8.93;;;3.20;;
23716;SDS011;22094;52.130;5.598;2023-03-23T14:26:11;10.70;;;3.30;;
23716;SDS011;22094;52.130;5.598;2023-03-23T14:28:42;7.97;;;2.90;;
23716;SDS011;22094;52.130;5.598;2023-03-23T14:31:16;9.88;;;2.70;;
23716;SDS011;22094;52.130;5.598;2023-03-23T14:33:43;7.50;;;2.20;;
23716;SDS011;22094;52.130;5.598;2023-03-23T14:36:09;7.82;;;2.15;;
23716;SDS011;22094;52.130;5.598;2023-03-23T14:38:35;5.13;;;2.15;;
23716;SDS011;22094;52.130;5.598;2023-03-23T14:41:03;5.13;;;2.17;;
23716;SDS011;22094;52.130;5.598;2023-03-23T14:43:30;5.80;;;2.00;;
23716;SDS011;22094;52.130;5.598;2023-03-23T14:45:59;6.22;;;2.35;;
23716;SDS011;22094;52.130;5.598;2023-03-23T14:48:26;9.80;;;2.33;;
23716;SDS011;22094;52.130;5.598;2023-03-23T14:51:00;8.55;;;2.70;;
23716;SDS011;22094;52.130;5.598;2023-03-23T14:53:35;8.38;;;2.25;;
23716;SDS011;22094;52.130;5.598;2023-03-23T14:56:12;6.70;;;2.60;;
23716;SDS011;22094;52.130;5.598;2023-03-23T14:58:43;6.57;;;2.05;;
23716;SDS011;22094;52.130;5.598;2023-03-23T15:01:30;8.65;;;2.33;;
23716;SDS011;22094;52.130;5.598;2023-03-23T15:04:06;8.32;;;2.25;;
23716;SDS011;22094;52.130;5.598;2023-03-23T15:06:42;10.38;;;2.60;;
23716;SDS011;22094;52.130;5.598;2023-03-23T15:09:14;12.95;;;2.70;;
23716;SDS011;22094;52.130;5.598;2023-03-23T15:11:43;6.07;;;2.15;;
23716;SDS011;22094;52.130;5.598;2023-03-23T15:14:21;8.30;;;2.25;;
23716;SDS011;22094;52.130;5.598;2023-03-23T15:16:51;7.82;;;2.05;;
23716;SDS011;22094;52.130;5.598;2023-03-23T15:19:21;8.43;;;2.60;;
23716;SDS011;22094;52.130;5.598;2023-03-23T15:21:56;9.50;;;2.30;;
23716;SDS011;22094;52.130;5.598;2023-03-23T15:24:33;6.93;;;2.33;;
23716;SDS011;22094;52.130;5.598;2023-03-23T15:27:15;7.53;;;2.28;;
23716;SDS011;22094;52.130;5.598;2023-03-23T15:29:53;9.90;;;2.55;;
23716;SDS011;22094;52.130;5.598;2023-03-23T15:32:39;11.15;;;2.17;;
23716;SDS011;22094;52.130;5.598;2023-03-23T15:35:17;7.88;;;2.58;;
23716;SDS011;22094;52.130;5.598;2023-03-23T15:37:49;10.07;;;2.20;;
23716;SDS011;22094;52.130;5.598;2023-03-23T15:40:37;8.10;;;2.40;;
23716;SDS011;22094;52.130;5.598;2023-03-23T15:43:07;9.15;;;2.58;;
23716;SDS011;22094;52.130;5.598;2023-03-23T15:48:46;9.23;;;2.67;;
23716;SDS011;22094;52.130;5.598;2023-03-23T15:51:19;12.10;;;2.75;;
23716;SDS011;22094;52.130;5.598;2023-03-23T15:53:48;8.35;;;2.35;;
23716;SDS011;22094;52.130;5.598;2023-03-23T15:56:15;9.90;;;2.50;;
23716;SDS011;22094;52.130;5.598;2023-03-23T15:58:41;7.93;;;2.00;;
23716;SDS011;22094;52.130;5.598;2023-03-23T16:01:10;9.00;;;2.78;;
23716;SDS011;22094;52.130;5.598;2023-03-23T16:03:39;10.75;;;3.13;;
23716;SDS011;22094;52.130;5.598;2023-03-23T16:06:09;13.50;;;2.58;;
23716;SDS011;22094;52.130;5.598;2023-03-23T16:08:36;6.85;;;2.30;;
23716;SDS011;22094;52.130;5.598;2023-03-23T16:11:05;8.50;;;2.25;;
23716;SDS011;22094;52.130;5.598;2023-03-23T16:13:32;9.70;;;2.85;;
23716;SDS011;22094;52.130;5.598;2023-03-23T16:15:57;8.50;;;2.50;;
23716;SDS011;22094;52.130;5.598;2023-03-23T16:18:23;9.55;;;2.50;;
23716;SDS011;22094;52.130;5.598;2023-03-23T16:20:48;9.80;;;3.20;;
23716;SDS011;22094;52.130;5.598;2023-03-23T16:23:15;11.25;;;3.00;;
23716;SDS011;22094;52.130;5.598;2023-03-23T16:25:41;10.23;;;3.10;;
23716;SDS011;22094;52.130;5.598;2023-03-23T16:28:13;12.43;;;3.65;;
23716;SDS011;22094;52.130;5.598;2023-03-23T16:30:39;10.45;;;3.40;;
23716;SDS011;22094;52.130;5.598;2023-03-23T16:33:06;9.50;;;3.42;;
23716;SDS011;22094;52.130;5.598;2023-03-23T16:35:32;15.85;;;4.07;;
23716;SDS011;22094;52.130;5.598;2023-03-23T16:37:58;11.10;;;3.40;;
23716;SDS011;22094;52.130;5.598;2023-03-23T16:40:23;9.50;;;3.00;;
23716;SDS011;22094;52.130;5.598;2023-03-23T16:42:50;13.38;;;5.78;;
23716;SDS011;22094;52.130;5.598;2023-03-23T16:45:16;12.07;;;4.20;;
23716;SDS011;22094;52.130;5.598;2023-03-23T16:47:43;13.63;;;5.50;;
23716;SDS011;22094;52.130;5.598;2023-03-23T16:50:10;14.40;;;3.60;;
23716;SDS011;22094;52.130;5.598;2023-03-23T16:52:39;9.32;;;3.60;;